Time;durP1;ratioP1;P1;durP2;ratioP2;P2;SDS_P1;SDS_P2;PMS_P1;PMS_P2;Temp;Humidity;BMP_temperature;BMP_pressure;BME280_temperature;BME280_humidity;BME280_pressure;Samples;Min_cycle;Max_cycle;Signal;HPM_P1;HPM_P2
2019/10/17 00:00:39;;;;;;;3.199999;2.05;;;;;;;7.21;98.83887;95095.76;;;;
2019/10/17 00:01:44;;;;;;;3.199999;2.05;;;;;;;7.21;98.83887;95095.76;;;;
2019/10/17 00:02:46;;;;;;;3.199999;2.05;;;;;;;7.21;98.83887;95095.76;;;;
2019/10/17 00:03:47;;;;;;;3.199999;2.05;;;;;;;7.21;98.83887;95095.76;;;;
2019/10/17 00:04:49;;;;;;;3.199999;2.05;;;;;;;7.21;98.83887;95095.76;;;;
2019/10/17 00:05:50;;;;;;;3.199999;2.05;;;;;;;7.21;98.83887;95095.76;;;;
2019/10/17 00:06:51;;;;;;;3.199999;2.05;;;;;;;7.21;98.83887;95095.76;;;;
2019/10/17 00:07:52;;;;;;;3.199999;2.05;;;;;;;7.21;98.83887;95095.76;;;;
2019/10/17 00:08:54;;;;;;;2;1.8;;;;;;;7.13;97.10547;95090.15;;;;
2019/10/17 00:09:55;;;;;;;2;1.8;;;;;;;7.13;97.10547;95090.15;;;;
2019/10/17 00:10:56;;;;;;;4.699999;1.8;;;;;;;7.16;97.95313;95087.56;;;;
2019/10/17 00:11:57;;;;;;;4.699999;1.8;;;;;;;7.16;97.95313;95087.56;;;;
2019/10/17 00:12:58;;;;;;;4.699999;1.8;;;;;;;7.16;97.95313;95087.56;;;;
2019/10/17 00:13:59;;;;;;;2.5;2;;;;;;;7.25;98.45898;95085.83;;;;
2019/10/17 00:15:04;;;;;;;2.5;2;;;;;;;7.25;98.45898;95085.83;;;;
2019/10/17 00:16:05;;;;;;;5.05;1.9;;;;;;;7.31;98.88574;95098.25;;;;
2019/10/17 00:17:06;;;;;;;5.05;1.9;;;;;;;7.31;98.88574;95098.25;;;;
2019/10/17 00:18:07;;;;;;;5.05;1.9;;;;;;;7.31;98.88574;95098.25;;;;
2019/10/17 00:19:08;;;;;;;3.4;1.9;;;;;;;7.37;99.05469;95089.84;;;;
2019/10/17 00:20:10;;;;;;;3.4;1.9;;;;;;;7.37;99.05469;95089.84;;;;
2019/10/17 00:21:11;;;;;;;3.4;1.9;;;;;;;7.37;99.05469;95089.84;;;;
2019/10/17 00:22:12;;;;;;;2.4;1.95;;;;;;;7.41;99.26563;95095.08;;;;
2019/10/17 00:23:13;;;;;;;2.4;1.95;;;;;;;7.41;99.26563;95095.08;;;;
2019/10/17 00:24:14;;;;;;;2.4;1.95;;;;;;;7.41;99.26563;95095.08;;;;
2019/10/17 00:25:19;;;;;;;2.4;1.95;;;;;;;7.41;99.26563;95095.08;;;;
2019/10/17 00:26:20;;;;;;;2.4;1.95;;;;;;;7.41;99.26563;95095.08;;;;
2019/10/17 00:27:21;;;;;;;2.4;1.95;;;;;;;7.41;99.26563;95095.08;;;;
2019/10/17 00:28:22;;;;;;;2.4;1.95;;;;;;;7.41;99.26563;95095.08;;;;
2019/10/17 00:29:23;;;;;;;2.4;1.95;;;;;;;7.41;99.26563;95095.08;;;;
2019/10/17 00:30:25;;;;;;;2.4;1.95;;;;;;;7.41;99.26563;95095.08;;;;
2019/10/17 00:31:26;;;;;;;2.4;1.95;;;;;;;7.41;99.26563;95095.08;;;;
2019/10/17 00:35:57;;;;;;;3.199999;1.9;;;;;;;7.05;98.38281;95095.78;;;;
2019/10/17 00:36:58;;;;;;;3.199999;1.9;;;;;;;7.05;98.38281;95095.78;;;;
2019/10/17 00:37:59;;;;;;;2.5;1.8;;;;;;;7.09;98.77051;95101.53;;;;
2019/10/17 00:39:00;;;;;;;2.5;1.8;;;;;;;7.09;98.77051;95101.53;;;;
2019/10/17 00:40:03;;;;;;;4.05;1.9;;;;;;;7.12;99.125;95105.14;;;;
2019/10/17 00:41:04;;;;;;;4.05;1.9;;;;;;;7.12;99.125;95105.14;;;;
2019/10/17 00:42:06;;;;;;;4.05;1.9;;;;;;;7.12;99.125;95105.14;;;;
2019/10/17 00:43:07;;;;;;;4.05;1.9;;;;;;;7.12;99.125;95105.14;;;;
2019/10/17 00:44:08;;;;;;;4.05;1.9;;;;;;;7.12;99.125;95105.14;;;;
2019/10/17 00:45:15;;;;;;;4.05;1.9;;;;;;;7.12;99.125;95105.14;;;;
2019/10/17 00:46:16;;;;;;;4.05;1.9;;;;;;;7.12;99.125;95105.14;;;;
2019/10/17 00:47:17;;;;;;;4.05;1.9;;;;;;;7.12;99.125;95105.14;;;;
2019/10/17 00:48:18;;;;;;;4.05;1.9;;;;;;;7.12;99.125;95105.14;;;;
2019/10/17 00:49:20;;;;;;;4.05;1.9;;;;;;;7.12;99.125;95105.14;;;;
2019/10/17 00:50:21;;;;;;;4.05;1.9;;;;;;;7.12;99.125;95105.14;;;;
2019/10/17 00:51:22;;;;;;;3.05;1.65;;;;;;;6.83;97.74414;95105.67;;;;
2019/10/17 00:52:23;;;;;;;3.05;1.65;;;;;;;6.83;97.74414;95105.67;;;;
2019/10/17 00:53:24;;;;;;;2.45;1.9;;;;;;;6.84;98.58691;95104.71;;;;
2019/10/17 00:54:26;;;;;;;2.45;1.9;;;;;;;6.84;98.58691;95104.71;;;;
2019/10/17 00:55:27;;;;;;;2.45;1.9;;;;;;;6.84;98.58691;95104.71;;;;
2019/10/17 00:56:28;;;;;;;2.8;1.95;;;;;;;6.9;99.02051;95101.17;;;;
2019/10/17 00:57:29;;;;;;;2.8;1.95;;;;;;;6.9;99.02051;95101.17;;;;
2019/10/17 00:58:30;;;;;;;5.400001;2.4;;;;;;;6.96;99.47852;95103.8;;;;
2019/10/17 00:59:31;;;;;;;5.400001;2.4;;;;;;;6.96;99.47852;95103.8;;;;
2019/10/17 01:00:32;;;;;;;5.400001;2.4;;;;;;;6.96;99.47852;95103.8;;;;
2019/10/17 01:01:34;;;;;;;3.600001;1.9;;;;;;;7.01;99.67871;95103.57;;;;
2019/10/17 01:02:35;;;;;;;3.600001;1.9;;;;;;;7.01;99.67871;95103.57;;;;
2019/10/17 01:03:36;;;;;;;3.600001;1.9;;;;;;;7.01;99.67871;95103.57;;;;
2019/10/17 01:04:37;;;;;;;3;1.8;;;;;;;7.06;100;95102.81;;;;
2019/10/17 01:05:39;;;;;;;3;1.8;;;;;;;7.06;100;95102.81;;;;
2019/10/17 01:06:40;;;;;;;3;1.8;;;;;;;7.06;100;95102.81;;;;
2019/10/17 01:07:41;;;;;;;3;1.8;;;;;;;7.06;100;95102.81;;;;
2019/10/17 01:08:43;;;;;;;3;1.8;;;;;;;7.06;100;95102.81;;;;
2019/10/17 01:09:44;;;;;;;3;1.8;;;;;;;7.06;100;95102.81;;;;
2019/10/17 01:10:45;;;;;;;3;1.8;;;;;;;7.06;100;95102.81;;;;
2019/10/17 01:11:46;;;;;;;3;1.8;;;;;;;7.06;100;95102.81;;;;
2019/10/17 01:12:47;;;;;;;3;1.8;;;;;;;7.06;100;95102.81;;;;
2019/10/17 01:13:48;;;;;;;3;1.8;;;;;;;7.06;100;95102.81;;;;
2019/10/17 01:14:50;;;;;;;3.45;1.8;;;;;;;6.86;98.6123;95112.45;;;;
2019/10/17 01:15:51;;;;;;;3.45;1.8;;;;;;;6.86;98.6123;95112.45;;;;
2019/10/17 01:16:52;;;;;;;3.45;1.8;;;;;;;6.86;98.6123;95112.45;;;;
2019/10/17 01:17:54;;;;;;;1.9;1.8;;;;;;;6.87;99.4375;95114.9;;;;
2019/10/17 01:18:55;;;;;;;1.9;1.8;;;;;;;6.87;99.4375;95114.9;;;;
2019/10/17 01:19:56;;;;;;;1.9;1.8;;;;;;;6.87;99.4375;95114.9;;;;
2019/10/17 01:20:58;;;;;;;1.9;1.8;;;;;;;6.87;99.4375;95114.9;;;;
2019/10/17 01:21:59;;;;;;;1.9;1.8;;;;;;;6.87;99.4375;95114.9;;;;
2019/10/17 01:23:00;;;;;;;1.9;1.8;;;;;;;6.87;99.4375;95114.9;;;;
2019/10/17 01:24:02;;;;;;;1.9;1.8;;;;;;;6.87;99.4375;95114.9;;;;
2019/10/17 01:25:03;;;;;;;1.9;1.8;;;;;;;6.87;99.4375;95114.9;;;;
2019/10/17 01:26:05;;;;;;;1.9;1.8;;;;;;;6.87;99.4375;95114.9;;;;
2019/10/17 01:27:06;;;;;;;1.9;1.8;;;;;;;6.87;99.4375;95114.9;;;;
2019/10/17 01:28:07;;;;;;;2.15;1.9;;;;;;;6.74;98.27051;95109.23;;;;
2019/10/17 01:29:08;;;;;;;2.15;1.9;;;;;;;6.74;98.27051;95109.23;;;;
2019/10/17 01:30:09;;;;;;;2.15;1.9;;;;;;;6.74;98.27051;95109.23;;;;
2019/10/17 01:31:11;;;;;;;2.8;2;;;;;;;6.78;99.2373;95103.33;;;;
2019/10/17 01:32:12;;;;;;;2.8;2;;;;;;;6.78;99.2373;95103.33;;;;
2019/10/17 01:33:13;;;;;;;2.1;1.85;;;;;;;6.88;99.81934;95105.83;;;;
2019/10/17 01:34:14;;;;;;;2.1;1.85;;;;;;;6.88;99.81934;95105.83;;;;
2019/10/17 01:35:16;;;;;;;2.1;1.85;;;;;;;6.88;99.81934;95105.83;;;;
2019/10/17 01:36:17;;;;;;;2.4;2.05;;;;;;;6.98;100;95106.29;;;;
2019/10/17 01:37:18;;;;;;;2.4;2.05;;;;;;;6.98;100;95106.29;;;;
2019/10/17 01:38:19;;;;;;;2.4;2.05;;;;;;;6.98;100;95106.29;;;;
2019/10/17 01:39:21;;;;;;;2.4;2.05;;;;;;;6.98;100;95106.29;;;;
2019/10/17 01:40:22;;;;;;;2.4;2.05;;;;;;;6.98;100;95106.29;;;;
2019/10/17 01:41:23;;;;;;;2.4;2.05;;;;;;;6.98;100;95106.29;;;;
2019/10/17 01:42:24;;;;;;;2.4;2.05;;;;;;;6.98;100;95106.29;;;;
2019/10/17 01:43:25;;;;;;;2.4;2.05;;;;;;;6.98;100;95106.29;;;;
2019/10/17 01:44:27;;;;;;;2.4;2.05;;;;;;;6.98;100;95106.29;;;;
2019/10/17 01:45:28;;;;;;;2.4;2.05;;;;;;;6.98;100;95106.29;;;;
2019/10/17 01:46:29;;;;;;;3.1;1.75;;;;;;;6.9;98.87305;95106.54;;;;
2019/10/17 01:47:30;;;;;;;3.1;1.75;;;;;;;6.9;98.87305;95106.54;;;;
2019/10/17 01:48:32;;;;;;;3.1;1.75;;;;;;;6.9;98.87305;95106.54;;;;
2019/10/17 01:49:33;;;;;;;3.2;1.95;;;;;;;6.94;99.7793;95103.22;;;;
2019/10/17 01:50:34;;;;;;;3.2;1.95;;;;;;;6.94;99.7793;95103.22;;;;
2019/10/17 01:51:35;;;;;;;3.2;1.95;;;;;;;6.94;99.7793;95103.22;;;;
2019/10/17 01:52:36;;;;;;;3.2;1.95;;;;;;;6.94;99.7793;95103.22;;;;
2019/10/17 01:53:38;;;;;;;3.2;1.95;;;;;;;6.94;99.7793;95103.22;;;;
2019/10/17 01:54:39;;;;;;;3.2;1.95;;;;;;;6.94;99.7793;95103.22;;;;
2019/10/17 01:55:40;;;;;;;3.2;1.95;;;;;;;6.94;99.7793;95103.22;;;;
2019/10/17 01:56:41;;;;;;;3.2;1.95;;;;;;;6.94;99.7793;95103.22;;;;
2019/10/17 01:57:42;;;;;;;3.2;1.95;;;;;;;6.94;99.7793;95103.22;;;;
2019/10/17 01:58:44;;;;;;;3.2;1.95;;;;;;;6.94;99.7793;95103.22;;;;
2019/10/17 01:59:45;;;;;;;2.55;1.75;;;;;;;6.91;98.64355;95109.12;;;;
2019/10/17 02:00:46;;;;;;;2.55;1.75;;;;;;;6.91;98.64355;95109.12;;;;
2019/10/17 02:01:47;;;;;;;2.55;1.75;;;;;;;6.91;98.64355;95109.12;;;;
2019/10/17 02:02:49;;;;;;;2.5;2.05;;;;;;;6.96;99.64648;95113.19;;;;
2019/10/17 02:03:50;;;;;;;2.5;2.05;;;;;;;6.96;99.64648;95113.19;;;;
2019/10/17 02:04:51;;;;;;;2.5;2.05;;;;;;;6.96;99.64648;95113.19;;;;
2019/10/17 02:05:57;;;;;;;2.5;2.05;;;;;;;6.96;99.64648;95113.19;;;;
2019/10/17 02:06:58;;;;;;;2.5;2.05;;;;;;;6.96;99.64648;95113.19;;;;
2019/10/17 02:08:00;;;;;;;2.5;2.05;;;;;;;6.96;99.64648;95113.19;;;;
2019/10/17 02:09:01;;;;;;;2.5;2.05;;;;;;;6.96;99.64648;95113.19;;;;
2019/10/17 02:10:04;;;;;;;2.5;2.05;;;;;;;6.96;99.64648;95113.19;;;;
2019/10/17 02:11:07;;;;;;;2.5;2.05;;;;;;;6.96;99.64648;95113.19;;;;
2019/10/17 02:12:08;;;;;;;2.5;2.05;;;;;;;6.96;99.64648;95113.19;;;;
2019/10/17 02:13:10;;;;;;;2.5;1.75;;;;;;;7;98.61426;95109.96;;;;
2019/10/17 02:14:11;;;;;;;2.5;1.75;;;;;;;7;98.61426;95109.96;;;;
2019/10/17 02:15:18;;;;;;;2.5;1.75;;;;;;;7;98.61426;95109.96;;;;
2019/10/17 02:20:27;;;;;;;2.75;1.9;;;;;;;7.06;99.56445;95114.47;;;;
2019/10/17 02:21:28;;;;;;;2.75;1.9;;;;;;;7.06;99.56445;95114.47;;;;
2019/10/17 02:22:29;;;;;;;2.75;1.9;;;;;;;7.06;99.56445;95114.47;;;;
2019/10/17 02:23:32;;;;;;;2.75;1.9;;;;;;;7.06;99.56445;95114.47;;;;
2019/10/17 02:24:33;;;;;;;2.75;1.9;;;;;;;7.06;99.56445;95114.47;;;;
2019/10/17 02:25:34;;;;;;;2.75;1.9;;;;;;;7.06;99.56445;95114.47;;;;
2019/10/17 02:27:25;;;;;;;2.55;1.65;;;;;;;7.07;98.51367;95110.74;;;;
2019/10/17 02:28:31;;;;;;;2.55;1.65;;;;;;;7.07;98.51367;95110.74;;;;
2019/10/17 02:29:33;;;;;;;4.5;1.8;;;;;;;7.13;99.46387;95107.19;;;;
2019/10/17 02:30:34;;;;;;;4.5;1.8;;;;;;;7.13;99.46387;95107.19;;;;
2019/10/17 02:31:35;;;;;;;4.5;1.8;;;;;;;7.13;99.46387;95107.19;;;;
2019/10/17 02:32:36;;;;;;;4.5;1.8;;;;;;;7.13;99.46387;95107.19;;;;
2019/10/17 02:33:37;;;;;;;4.5;1.8;;;;;;;7.13;99.46387;95107.19;;;;
2019/10/17 02:34:39;;;;;;;4.5;1.8;;;;;;;7.13;99.46387;95107.19;;;;
2019/10/17 02:35:52;;;;;;;4.5;1.8;;;;;;;7.13;99.46387;95107.19;;;;
2019/10/17 02:36:56;;;;;;;4.5;1.8;;;;;;;7.13;99.46387;95107.19;;;;
2019/10/17 02:37:58;;;;;;;4.5;1.8;;;;;;;7.13;99.46387;95107.19;;;;
2019/10/17 02:38:59;;;;;;;4.5;1.8;;;;;;;7.13;99.46387;95107.19;;;;
2019/10/17 02:40:01;;;;;;;2.35;1.6;;;;;;;7.18;98.52832;95108.69;;;;
2019/10/17 02:41:02;;;;;;;2.35;1.6;;;;;;;7.18;98.52832;95108.69;;;;
2019/10/17 02:43:06;;;;;;;3.55;1.8;;;;;;;7.24;99.39551;95115.88;;;;
2019/10/17 02:44:17;;;;;;;3.55;1.8;;;;;;;7.24;99.39551;95115.88;;;;
2019/10/17 02:45:19;;;;;;;3.55;1.8;;;;;;;7.24;99.39551;95115.88;;;;
2019/10/17 02:46:20;;;;;;;3.55;1.8;;;;;;;7.24;99.39551;95115.88;;;;
2019/10/17 02:47:21;;;;;;;3.55;1.8;;;;;;;7.24;99.39551;95115.88;;;;
2019/10/17 02:48:22;;;;;;;3.55;1.8;;;;;;;7.24;99.39551;95115.88;;;;
2019/10/17 02:49:24;;;;;;;3.55;1.8;;;;;;;7.24;99.39551;95115.88;;;;
2019/10/17 02:50:25;;;;;;;3.55;1.8;;;;;;;7.24;99.39551;95115.88;;;;
2019/10/17 02:51:27;;;;;;;3.55;1.8;;;;;;;7.24;99.39551;95115.88;;;;
2019/10/17 02:52:28;;;;;;;3.55;1.8;;;;;;;7.24;99.39551;95115.88;;;;
2019/10/17 02:53:37;;;;;;;3.35;1.7;;;;;;;7.25;98.32227;95117.5;;;;
2019/10/17 02:54:47;;;;;;;3.35;1.7;;;;;;;7.25;98.32227;95117.5;;;;
2019/10/17 02:55:58;;;;;;;4.25;1.6;;;;;;;7.31;99.27344;95119.32;;;;
2019/10/17 02:57:00;;;;;;;4.25;1.6;;;;;;;7.31;99.27344;95119.32;;;;
2019/10/17 02:58:06;;;;;;;4.25;1.6;;;;;;;7.31;99.27344;95119.32;;;;
2019/10/17 02:59:09;;;;;;;4.25;1.6;;;;;;;7.31;99.27344;95119.32;;;;
2019/10/17 03:00:11;;;;;;;4.25;1.6;;;;;;;7.31;99.27344;95119.32;;;;
2019/10/17 03:01:12;;;;;;;4.25;1.6;;;;;;;7.31;99.27344;95119.32;;;;
2019/10/17 03:02:13;;;;;;;4.25;1.6;;;;;;;7.31;99.27344;95119.32;;;;
2019/10/17 03:03:15;;;;;;;4.25;1.6;;;;;;;7.31;99.27344;95119.32;;;;
2019/10/17 03:04:16;;;;;;;4.25;1.6;;;;;;;7.31;99.27344;95119.32;;;;
2019/10/17 03:05:17;;;;;;;4.25;1.6;;;;;;;7.31;99.27344;95119.32;;;;
2019/10/17 03:06:18;;;;;;;4.4;1.9;;;;;;;7.26;98.22754;95117.41;;;;
2019/10/17 03:07:19;;;;;;;4.4;1.9;;;;;;;7.26;98.22754;95117.41;;;;
2019/10/17 03:08:21;;;;;;;4.4;1.9;;;;;;;7.26;98.22754;95117.41;;;;
2019/10/17 03:09:22;;;;;;;3.700001;1.75;;;;;;;7.3;99.14453;95120.76;;;;
2019/10/17 03:10:23;;;;;;;3.700001;1.75;;;;;;;7.3;99.14453;95120.76;;;;
2019/10/17 03:11:24;;;;;;;3.700001;1.75;;;;;;;7.3;99.14453;95120.76;;;;
2019/10/17 03:12:25;;;;;;;3.700001;1.75;;;;;;;7.3;99.14453;95120.76;;;;
2019/10/17 03:13:26;;;;;;;3.700001;1.75;;;;;;;7.3;99.14453;95120.76;;;;
2019/10/17 03:14:28;;;;;;;3.700001;1.75;;;;;;;7.3;99.14453;95120.76;;;;
2019/10/17 03:15:29;;;;;;;3.700001;1.75;;;;;;;7.3;99.14453;95120.76;;;;
2019/10/17 03:16:30;;;;;;;3.700001;1.75;;;;;;;7.3;99.14453;95120.76;;;;
2019/10/17 03:17:31;;;;;;;3.700001;1.75;;;;;;;7.3;99.14453;95120.76;;;;
2019/10/17 03:18:32;;;;;;;3.700001;1.75;;;;;;;7.3;99.14453;95120.76;;;;
2019/10/17 03:19:33;;;;;;;2.25;1.85;;;;;;;7.21;98.15332;95123.55;;;;
2019/10/17 03:20:35;;;;;;;2.25;1.85;;;;;;;7.21;98.15332;95123.55;;;;
2019/10/17 03:21:36;;;;;;;2.25;1.85;;;;;;;7.21;98.15332;95123.55;;;;
2019/10/17 03:22:37;;;;;;;1.95;1.75;;;;;;;7.22;99.04297;95117.95;;;;
2019/10/17 03:23:38;;;;;;;1.95;1.75;;;;;;;7.22;99.04297;95117.95;;;;
2019/10/17 03:24:39;;;;;;;1.95;1.75;;;;;;;7.22;99.04297;95117.95;;;;
2019/10/17 03:25:42;;;;;;;1.95;1.75;;;;;;;7.22;99.04297;95117.95;;;;
2019/10/17 03:26:43;;;;;;;1.95;1.75;;;;;;;7.22;99.04297;95117.95;;;;
2019/10/17 03:27:44;;;;;;;1.95;1.75;;;;;;;7.22;99.04297;95117.95;;;;
2019/10/17 03:28:45;;;;;;;1.95;1.75;;;;;;;7.22;99.04297;95117.95;;;;
2019/10/17 03:29:46;;;;;;;1.95;1.75;;;;;;;7.22;99.04297;95117.95;;;;
2019/10/17 03:30:48;;;;;;;1.95;1.75;;;;;;;7.22;99.04297;95117.95;;;;
2019/10/17 03:31:49;;;;;;;1.95;1.75;;;;;;;7.22;99.04297;95117.95;;;;
2019/10/17 03:32:51;;;;;;;1.95;1.7;;;;;;;7.11;98.08789;95132.59;;;;
2019/10/17 03:33:52;;;;;;;1.95;1.7;;;;;;;7.11;98.08789;95132.59;;;;
2019/10/17 03:34:54;;;;;;;1.8;1.55;;;;;;;7.13;99.02148;95133.61;;;;
2019/10/17 03:35:55;;;;;;;1.8;1.55;;;;;;;7.13;99.02148;95133.61;;;;
2019/10/17 03:36:56;;;;;;;1.8;1.55;;;;;;;7.13;99.02148;95133.61;;;;
2019/10/17 03:37:58;;;;;;;1.8;1.55;;;;;;;7.13;99.02148;95133.61;;;;
2019/10/17 03:38:59;;;;;;;1.8;1.55;;;;;;;7.13;99.02148;95133.61;;;;
2019/10/17 03:40:00;;;;;;;1.8;1.55;;;;;;;7.13;99.02148;95133.61;;;;
2019/10/17 03:41:01;;;;;;;1.8;1.55;;;;;;;7.13;99.02148;95133.61;;;;
2019/10/17 03:42:02;;;;;;;1.8;1.55;;;;;;;7.13;99.02148;95133.61;;;;
2019/10/17 03:43:04;;;;;;;1.8;1.55;;;;;;;7.13;99.02148;95133.61;;;;
2019/10/17 03:44:05;;;;;;;1.8;1.55;;;;;;;7.13;99.02148;95133.61;;;;
2019/10/17 03:45:06;;;;;;;1.8;1.55;;;;;;;7.13;99.02148;95133.61;;;;
2019/10/17 03:46:07;;;;;;;2.5;1.85;;;;;;;7.02;98.19727;95127.09;;;;
2019/10/17 03:47:08;;;;;;;2.5;1.85;;;;;;;7.02;98.19727;95127.09;;;;
2019/10/17 03:48:09;;;;;;;2.5;1.85;;;;;;;7.02;98.19727;95127.09;;;;
2019/10/17 03:49:11;;;;;;;2.5;1.85;;;;;;;7.02;98.19727;95127.09;;;;
2019/10/17 03:50:12;;;;;;;2.5;1.85;;;;;;;7.02;98.19727;95127.09;;;;
2019/10/17 03:51:13;;;;;;;2.5;1.85;;;;;;;7.02;98.19727;95127.09;;;;
2019/10/17 03:52:19;;;;;;;2.5;1.85;;;;;;;7.02;98.19727;95127.09;;;;
2019/10/17 03:53:20;;;;;;;2.5;1.85;;;;;;;7.02;98.19727;95127.09;;;;
2019/10/17 03:54:21;;;;;;;2.5;1.85;;;;;;;7.02;98.19727;95127.09;;;;
2019/10/17 03:55:23;;;;;;;2.5;1.85;;;;;;;7.02;98.19727;95127.09;;;;
2019/10/17 03:56:24;;;;;;;2.5;1.9;;;;;;;7;97.78027;95129.3;;;;
2019/10/17 03:57:25;;;;;;;2.5;1.9;;;;;;;7;97.78027;95129.3;;;;
2019/10/17 03:58:26;;;;;;;2.5;1.9;;;;;;;7;97.78027;95129.3;;;;
2019/10/17 03:59:27;;;;;;;2.5;1.9;;;;;;;7;97.78027;95129.3;;;;
2019/10/17 04:00:28;;;;;;;2.5;1.9;;;;;;;7;97.78027;95129.3;;;;
2019/10/17 04:01:30;;;;;;;2.5;1.9;;;;;;;7;97.78027;95129.3;;;;
2019/10/17 04:02:31;;;;;;;2.5;1.9;;;;;;;7;97.78027;95129.3;;;;
2019/10/17 04:03:32;;;;;;;2.5;1.9;;;;;;;7;97.78027;95129.3;;;;
2019/10/17 04:04:33;;;;;;;2.5;1.9;;;;;;;7;97.78027;95129.3;;;;
2019/10/17 04:05:34;;;;;;;2.5;1.9;;;;;;;7;97.78027;95129.3;;;;
2019/10/17 04:06:35;;;;;;;2.5;1.9;;;;;;;7;97.78027;95129.3;;;;
2019/10/17 04:07:37;;;;;;;1.9;1.7;;;;;;;6.99;97.4707;95128.97;;;;
2019/10/17 04:09:19;;;;;;;1.9;1.7;;;;;;;6.99;97.4707;95128.97;;;;
2019/10/17 04:10:23;;;;;;;1.9;1.7;;;;;;;6.99;97.4707;95128.97;;;;
2019/10/17 04:11:25;;;;;;;1.9;1.7;;;;;;;6.99;97.4707;95128.97;;;;
2019/10/17 04:14:04;;;;;;;1.9;1.7;;;;;;;6.99;97.4707;95128.97;;;;
2019/10/17 04:15:06;;;;;;;1.9;1.7;;;;;;;6.99;97.4707;95128.97;;;;
2019/10/17 04:16:07;;;;;;;1.9;1.7;;;;;;;6.99;97.4707;95128.97;;;;
2019/10/17 04:17:09;;;;;;;1.9;1.7;;;;;;;6.99;97.4707;95128.97;;;;
2019/10/17 04:18:10;;;;;;;1.8;1.6;;;;;;;7.08;97.31445;95117.77;;;;
2019/10/17 04:19:11;;;;;;;1.8;1.6;;;;;;;7.08;97.31445;95117.77;;;;
2019/10/17 04:20:12;;;;;;;1.8;1.6;;;;;;;7.08;97.31445;95117.77;;;;
2019/10/17 04:21:13;;;;;;;1.8;1.6;;;;;;;7.08;97.31445;95117.77;;;;
2019/10/17 04:22:14;;;;;;;1.8;1.6;;;;;;;7.08;97.31445;95117.77;;;;
2019/10/17 04:27:14;;;;;;;1.8;1.6;;;;;;;7.08;97.31445;95117.77;;;;
2019/10/17 04:28:18;;;;;;;3.35;1.8;;;;;;;7.21;97.17285;95122.2;;;;
2019/10/17 04:29:42;;;;;;;3.35;1.8;;;;;;;7.21;97.17285;95122.2;;;;
2019/10/17 04:36:32;;;;;;;2.75;1.6;;;;;;;7.3;98.15332;95122.24;;;;
2019/10/17 04:37:34;;;;;;;2.75;1.6;;;;;;;7.3;98.15332;95122.24;;;;
2019/10/17 04:38:35;;;;;;;2.75;1.6;;;;;;;7.3;98.15332;95122.24;;;;
2019/10/17 04:39:37;;;;;;;2.75;1.6;;;;;;;7.3;98.15332;95122.24;;;;
2019/10/17 04:40:38;;;;;;;2.75;1.6;;;;;;;7.3;98.15332;95122.24;;;;
2019/10/17 04:41:39;;;;;;;3.6;1.7;;;;;;;7.33;97.23242;95119.92;;;;
2019/10/17 04:42:40;;;;;;;3.6;1.7;;;;;;;7.33;97.23242;95119.92;;;;
2019/10/17 04:43:41;;;;;;;3.6;1.7;;;;;;;7.33;97.23242;95119.92;;;;
2019/10/17 04:44:42;;;;;;;3.6;1.7;;;;;;;7.33;97.23242;95119.92;;;;
2019/10/17 04:45:44;;;;;;;3.6;1.7;;;;;;;7.33;97.23242;95119.92;;;;
2019/10/17 04:46:45;;;;;;;3.6;1.7;;;;;;;7.33;97.23242;95119.92;;;;
2019/10/17 04:47:46;;;;;;;3.6;1.7;;;;;;;7.33;97.23242;95119.92;;;;
2019/10/17 04:48:54;;;;;;;3.6;1.7;;;;;;;7.33;97.23242;95119.92;;;;
2019/10/17 04:49:55;;;;;;;3.6;1.7;;;;;;;7.33;97.23242;95119.92;;;;
2019/10/17 04:50:56;;;;;;;3.6;1.7;;;;;;;7.33;97.23242;95119.92;;;;
2019/10/17 04:51:58;;;;;;;3.85;1.7;;;;;;;7.26;96.97266;95123.71;;;;
2019/10/17 04:52:59;;;;;;;3.85;1.7;;;;;;;7.26;96.97266;95123.71;;;;
2019/10/17 04:54:00;;;;;;;3.85;1.7;;;;;;;7.26;96.97266;95123.71;;;;
2019/10/17 04:55:01;;;;;;;3.85;1.7;;;;;;;7.26;96.97266;95123.71;;;;
2019/10/17 04:56:03;;;;;;;3.85;1.7;;;;;;;7.26;96.97266;95123.71;;;;
2019/10/17 04:57:04;;;;;;;3.85;1.7;;;;;;;7.26;96.97266;95123.71;;;;
2019/10/17 04:58:05;;;;;;;3.85;1.7;;;;;;;7.26;96.97266;95123.71;;;;
2019/10/17 04:59:06;;;;;;;3.85;1.7;;;;;;;7.26;96.97266;95123.71;;;;
2019/10/17 05:00:08;;;;;;;3.85;1.7;;;;;;;7.26;96.97266;95123.71;;;;
2019/10/17 05:01:35;;;;;;;3.85;1.7;;;;;;;7.26;96.97266;95123.71;;;;
2019/10/17 05:02:37;;;;;;;3.3;1.7;;;;;;;7.1;96.94922;95131.8;;;;
2019/10/17 05:03:38;;;;;;;3.3;1.7;;;;;;;7.1;96.94922;95131.8;;;;
2019/10/17 05:04:39;;;;;;;3.3;1.7;;;;;;;7.1;96.94922;95131.8;;;;
2019/10/17 05:05:41;;;;;;;3.3;1.7;;;;;;;7.1;96.94922;95131.8;;;;
2019/10/17 05:06:42;;;;;;;3.3;1.7;;;;;;;7.1;96.94922;95131.8;;;;
2019/10/17 05:07:43;;;;;;;3.3;1.7;;;;;;;7.1;96.94922;95131.8;;;;
2019/10/17 05:08:44;;;;;;;3.3;1.7;;;;;;;7.1;96.94922;95131.8;;;;
2019/10/17 05:09:45;;;;;;;3.3;1.7;;;;;;;7.1;96.94922;95131.8;;;;
2019/10/17 05:10:47;;;;;;;3.3;1.7;;;;;;;7.1;96.94922;95131.8;;;;
2019/10/17 05:11:48;;;;;;;3.3;1.7;;;;;;;7.1;96.94922;95131.8;;;;
2019/10/17 05:12:51;;;;;;;3.3;1.7;;;;;;;7.1;96.94922;95131.8;;;;
2019/10/17 05:13:52;;;;;;;1.85;1.7;;;;;;;7.08;96.91406;95136.97;;;;
2019/10/17 05:14:53;;;;;;;1.85;1.7;;;;;;;7.08;96.91406;95136.97;;;;
2019/10/17 05:15:54;;;;;;;1.85;1.7;;;;;;;7.08;96.91406;95136.97;;;;
2019/10/17 05:16:55;;;;;;;1.85;1.7;;;;;;;7.08;96.91406;95136.97;;;;
2019/10/17 05:17:56;;;;;;;1.85;1.7;;;;;;;7.08;96.91406;95136.97;;;;
2019/10/17 05:18:58;;;;;;;1.85;1.7;;;;;;;7.08;96.91406;95136.97;;;;
2019/10/17 05:19:59;;;;;;;1.85;1.7;;;;;;;7.08;96.91406;95136.97;;;;
2019/10/17 05:21:28;;;;;;;1.85;1.7;;;;;;;7.08;96.91406;95136.97;;;;
2019/10/17 05:22:29;;;;;;;1.85;1.7;;;;;;;7.08;96.91406;95136.97;;;;
2019/10/17 05:23:30;;;;;;;1.85;1.7;;;;;;;7.08;96.91406;95136.97;;;;
2019/10/17 05:24:31;;;;;;;2.1;1.8;;;;;;;6.96;96.78125;95147.69;;;;
2019/10/17 05:25:32;;;;;;;2.1;1.8;;;;;;;6.96;96.78125;95147.69;;;;
2019/10/17 05:26:34;;;;;;;2.1;1.8;;;;;;;6.96;96.78125;95147.69;;;;
2019/10/17 05:27:35;;;;;;;2.1;1.8;;;;;;;6.96;96.78125;95147.69;;;;
2019/10/17 05:28:36;;;;;;;2.1;1.8;;;;;;;6.96;96.78125;95147.69;;;;
2019/10/17 05:29:38;;;;;;;2.1;1.8;;;;;;;6.96;96.78125;95147.69;;;;
2019/10/17 05:30:39;;;;;;;2.1;1.8;;;;;;;6.96;96.78125;95147.69;;;;
2019/10/17 05:31:40;;;;;;;2.1;1.8;;;;;;;6.96;96.78125;95147.69;;;;
2019/10/17 05:32:42;;;;;;;2.1;1.8;;;;;;;6.96;96.78125;95147.69;;;;
2019/10/17 05:33:43;;;;;;;2.1;1.8;;;;;;;6.96;96.78125;95147.69;;;;
2019/10/17 05:34:44;;;;;;;1.8;1.6;;;;;;;6.92;96.75977;95156.8;;;;
2019/10/17 05:35:45;;;;;;;1.8;1.6;;;;;;;6.92;96.75977;95156.8;;;;
2019/10/17 05:36:46;;;;;;;1.8;1.6;;;;;;;6.92;96.75977;95156.8;;;;
2019/10/17 05:37:47;;;;;;;1.8;1.6;;;;;;;6.92;96.75977;95156.8;;;;
2019/10/17 05:38:48;;;;;;;1.8;1.6;;;;;;;6.92;96.75977;95156.8;;;;
2019/10/17 05:39:50;;;;;;;1.8;1.6;;;;;;;6.92;96.75977;95156.8;;;;
2019/10/17 05:40:51;;;;;;;1.8;1.6;;;;;;;6.92;96.75977;95156.8;;;;
2019/10/17 05:41:52;;;;;;;1.8;1.6;;;;;;;6.92;96.75977;95156.8;;;;
2019/10/17 05:42:53;;;;;;;1.8;1.6;;;;;;;6.92;96.75977;95156.8;;;;
2019/10/17 05:43:54;;;;;;;1.8;1.6;;;;;;;6.92;96.75977;95156.8;;;;
2019/10/17 05:44:55;;;;;;;2.25;1.9;;;;;;;6.82;96.53906;95172.02;;;;
2019/10/17 05:45:56;;;;;;;2.25;1.9;;;;;;;6.82;96.53906;95172.02;;;;
2019/10/17 05:46:57;;;;;;;2.25;1.9;;;;;;;6.82;96.53906;95172.02;;;;
2019/10/17 05:47:59;;;;;;;2.25;1.9;;;;;;;6.82;96.53906;95172.02;;;;
2019/10/17 05:49:00;;;;;;;2.25;1.9;;;;;;;6.82;96.53906;95172.02;;;;
2019/10/17 05:50:01;;;;;;;2.25;1.9;;;;;;;6.82;96.53906;95172.02;;;;
2019/10/17 05:51:03;;;;;;;2.25;1.9;;;;;;;6.82;96.53906;95172.02;;;;
2019/10/17 05:52:04;;;;;;;2.25;1.9;;;;;;;6.82;96.53906;95172.02;;;;
2019/10/17 05:53:05;;;;;;;2.25;1.9;;;;;;;6.82;96.53906;95172.02;;;;
2019/10/17 05:54:06;;;;;;;2.25;1.9;;;;;;;6.82;96.53906;95172.02;;;;
2019/10/17 05:55:07;;;;;;;2.25;1.9;;;;;;;6.82;96.53906;95172.02;;;;
2019/10/17 05:56:08;;;;;;;3.55;2.05;;;;;;;6.87;96.55176;95184.68;;;;
2019/10/17 05:57:09;;;;;;;3.55;2.05;;;;;;;6.87;96.55176;95184.68;;;;
2019/10/17 05:58:10;;;;;;;3.55;2.05;;;;;;;6.87;96.55176;95184.68;;;;
2019/10/17 05:59:12;;;;;;;3.55;2.05;;;;;;;6.87;96.55176;95184.68;;;;
2019/10/17 06:00:13;;;;;;;3.55;2.05;;;;;;;6.87;96.55176;95184.68;;;;
2019/10/17 06:01:14;;;;;;;3.55;2.05;;;;;;;6.87;96.55176;95184.68;;;;
2019/10/17 06:02:15;;;;;;;3.55;2.05;;;;;;;6.87;96.55176;95184.68;;;;
2019/10/17 06:03:16;;;;;;;3.55;2.05;;;;;;;6.87;96.55176;95184.68;;;;
2019/10/17 06:04:17;;;;;;;3.55;2.05;;;;;;;6.87;96.55176;95184.68;;;;
2019/10/17 06:05:19;;;;;;;3.55;2.05;;;;;;;6.87;96.55176;95184.68;;;;
2019/10/17 06:06:20;;;;;;;1.95;1.7;;;;;;;6.99;96.35547;95194.22;;;;
2019/10/17 06:07:21;;;;;;;1.95;1.7;;;;;;;6.99;96.35547;95194.22;;;;
2019/10/17 06:08:22;;;;;;;1.95;1.7;;;;;;;6.99;96.35547;95194.22;;;;
2019/10/17 06:09:23;;;;;;;1.95;1.7;;;;;;;6.99;96.35547;95194.22;;;;
2019/10/17 06:10:24;;;;;;;1.95;1.7;;;;;;;6.99;96.35547;95194.22;;;;
2019/10/17 06:11:25;;;;;;;1.95;1.7;;;;;;;6.99;96.35547;95194.22;;;;
2019/10/17 06:12:27;;;;;;;1.95;1.7;;;;;;;6.99;96.35547;95194.22;;;;
2019/10/17 06:13:28;;;;;;;1.95;1.7;;;;;;;6.99;96.35547;95194.22;;;;
2019/10/17 06:14:29;;;;;;;1.95;1.7;;;;;;;6.99;96.35547;95194.22;;;;
2019/10/17 06:15:30;;;;;;;1.95;1.7;;;;;;;6.99;96.35547;95194.22;;;;
2019/10/17 06:16:31;;;;;;;1.95;1.7;;;;;;;6.99;96.35547;95194.22;;;;
2019/10/17 06:17:32;;;;;;;2.6;1.65;;;;;;;7.19;96.10547;95200.7;;;;
2019/10/17 06:18:34;;;;;;;2.6;1.65;;;;;;;7.19;96.10547;95200.7;;;;
2019/10/17 06:19:35;;;;;;;2.6;1.65;;;;;;;7.19;96.10547;95200.7;;;;
2019/10/17 06:20:36;;;;;;;2.6;1.65;;;;;;;7.19;96.10547;95200.7;;;;
2019/10/17 06:21:37;;;;;;;2.6;1.65;;;;;;;7.19;96.10547;95200.7;;;;
2019/10/17 06:22:38;;;;;;;2.6;1.65;;;;;;;7.19;96.10547;95200.7;;;;
2019/10/17 06:23:40;;;;;;;2.6;1.65;;;;;;;7.19;96.10547;95200.7;;;;
2019/10/17 06:24:41;;;;;;;2.6;1.65;;;;;;;7.19;96.10547;95200.7;;;;